메인 페이지
METAR-TAF:

METAR-TAF

공항 :

Theodore Francis Green State Airport

프로비던스, 로드아일랜드, 미국

위도: 41-43-26N, 경도: 071-25-41W, 고도: 16m

현재 날씨관측

예보는 41분 전, 22:51시(UTC)에 발표되었습니다.
10kt
온도 6°C
습도 56%
기압 1015 hPa
시정: 16.1km
고도 4000ft 상공 구름 조금
고도 25000ft 상공 구름 조금

METAR: KPVD 312251Z 08010KT 10SM FEW040 FEW250 06/M02 A2998 RMK AO2 SLP153 T00611017

시각: 19:32 (23:32 UTC)

예보

예보는 3 시간 13분 전, 20:19시(UTC)에 발표되었습니다.
예보 대상 시간: 31일 20시부터 01일 18시까지 (UTC)
9kt
시정: 10km
고도 4000ft 상공 구름 조금
31일 2200시부터 (UTC)
동북동8kt
시정: 10km
맑음
01일 0500시부터 (UTC)
4kt
시정: 10km
고도 25000ft 상공 구름 보통
01일 1500시부터 (UTC)
북북동10kt, 순간 최대 풍속 20kt
시정: 10km
고도 7000ft 상공 구름 많음

TAF: KPVD 312019Z 3120/0118 09009KT P6SM FEW040 FM312200 07008KT P6SM SKC FM010500 36004KT P6SM SCT250 FM011500 02010G20KT P6SM BKN070

4,000개 이상의 공항 관측 자료 및 예보 (METAR 및 TAF 보고).

지도상에서 검색 가능한 기상관측소가 노란 점과 빨간 점으로 표시되어 있습니다.

기상관측소 명을 보려면 표시 위로 마우스를 이동하세요.

날씨 관측과 예보를 보려면 클릭하세요.

지도 변경 : 확대하려면 엑스 표시가 있는 녹색 버튼, 축소하려면 빼기 표시가 있는 녹색 버튼, 다음 페이지의 지도를 보려면 녹색 화살표를 클릭하세요.


METAR-TAF: